createdAt,value
2022-07-30T00:00:23.794Z,68
2022-07-30T00:01:04.908Z,68
2022-07-30T00:01:51.150Z,68
2022-07-30T00:02:39.899Z,68
2022-07-30T00:03:22.793Z,68
2022-07-30T00:04:08.891Z,68
2022-07-30T00:04:54.814Z,68
2022-07-30T00:05:40.902Z,68
2022-07-30T00:06:26.772Z,68
2022-07-30T00:07:12.843Z,68
2022-07-30T00:07:58.790Z,68
2022-07-30T00:08:44.845Z,68
2022-07-30T00:09:31.603Z,68
2022-07-30T00:10:16.944Z,68
2022-07-30T00:11:02.953Z,68
2022-07-30T00:11:48.863Z,68
2022-07-30T00:12:34.778Z,68
2022-07-30T00:13:20.841Z,68
2022-07-30T00:14:06.822Z,68
2022-07-30T00:14:52.796Z,68
2022-07-30T00:15:38.930Z,68
2022-07-30T00:16:24.949Z,68
2022-07-30T00:17:10.971Z,68
2022-07-30T00:17:56.915Z,68
2022-07-30T00:18:42.821Z,68
2022-07-30T00:19:28.808Z,68
2022-07-30T00:20:14.831Z,68
2022-07-30T00:21:00.821Z,68
2022-07-30T00:21:46.821Z,68
2022-07-30T00:22:32.849Z,68
2022-07-30T00:23:18.890Z,68
2022-07-30T00:24:04.879Z,68
2022-07-30T00:24:51.297Z,68
2022-07-30T00:25:36.855Z,68
2022-07-30T00:26:22.833Z,68
2022-07-30T00:27:08.895Z,68
2022-07-30T00:27:54.975Z,68
2022-07-30T00:28:40.963Z,68
2022-07-30T00:29:26.843Z,68
2022-07-30T00:30:12.968Z,68
2022-07-30T00:30:58.940Z,68
2022-07-30T00:31:44.911Z,68
2022-07-30T00:32:30.887Z,68
2022-07-30T00:33:16.857Z,68
2022-07-30T00:34:02.937Z,68
2022-07-30T00:34:48.889Z,68
2022-07-30T00:35:34.904Z,68
2022-07-30T00:36:20.893Z,68
2022-07-30T00:37:06.900Z,68
2022-07-30T00:37:52.965Z,68
2022-07-30T00:38:39.064Z,68
2022-07-30T00:39:24.916Z,68
2022-07-30T00:40:10.962Z,68
2022-07-30T00:40:56.945Z,68
2022-07-30T00:41:42.882Z,68
2022-07-30T00:42:28.991Z,68
2022-07-30T00:43:14.921Z,68
2022-07-30T00:44:00.925Z,68
2022-07-30T00:44:46.956Z,68
2022-07-30T00:45:33.028Z,68
2022-07-30T00:46:19.038Z,68
2022-07-30T00:47:05.054Z,68
2022-07-30T00:47:51.685Z,68
2022-07-30T00:48:36.906Z,68
2022-07-30T00:49:22.964Z,68
2022-07-30T00:50:08.948Z,68
2022-07-30T00:50:55.092Z,70
2022-07-30T00:51:40.972Z,68
2022-07-30T00:52:26.905Z,68
2022-07-30T00:53:12.947Z,68
2022-07-30T00:53:58.960Z,68
2022-07-30T00:54:44.946Z,68
2022-07-30T00:55:30.945Z,68
2022-07-30T00:56:16.933Z,68
2022-07-30T00:57:03.165Z,68
2022-07-30T00:57:48.947Z,68
2022-07-30T00:58:34.953Z,68
2022-07-30T00:59:20.926Z,68
2022-07-30T01:00:07.019Z,68
2022-07-30T01:00:53.025Z,68
2022-07-30T01:01:39.047Z,68
2022-07-30T01:02:25.078Z,68
2022-07-30T01:03:11.073Z,68
2022-07-30T01:03:56.908Z,68
2022-07-30T01:04:42.955Z,68
2022-07-30T01:05:28.935Z,68
2022-07-30T01:06:14.970Z,68
2022-07-30T01:07:01.361Z,68
2022-07-30T01:07:46.960Z,68
2022-07-30T01:08:33.030Z,68
2022-07-30T01:09:18.932Z,68
2022-07-30T01:10:04.958Z,68
2022-07-30T01:10:51.308Z,68
2022-07-30T01:11:36.967Z,68
2022-07-30T01:12:45.664Z,68
2022-07-30T01:13:09.000Z,68
2022-07-30T01:13:55.006Z,68
2022-07-30T01:14:41.028Z,68
2022-07-30T01:15:27.151Z,68
2022-07-30T01:16:13.629Z,68
2022-07-30T01:16:59.331Z,68
2022-07-30T01:17:44.981Z,68
2022-07-30T01:18:30.982Z,68
2022-07-30T01:19:17.003Z,68
2022-07-30T01:20:03.127Z,68
2022-07-30T01:20:48.985Z,68
2022-07-30T01:21:35.116Z,68
2022-07-30T01:22:21.002Z,68
2022-07-30T01:23:07.026Z,68
2022-07-30T01:23:53.047Z,68
2022-07-30T01:24:39.162Z,68
2022-07-30T01:25:25.096Z,68
2022-07-30T01:26:26.641Z,68
2022-07-30T01:26:57.378Z,68
2022-07-30T01:27:43.082Z,69
2022-07-30T01:28:29.036Z,68
2022-07-30T01:29:15.085Z,69
2022-07-30T01:30:01.522Z,69
2022-07-30T01:30:47.041Z,69
2022-07-30T01:31:33.138Z,68
2022-07-30T01:32:19.014Z,68
2022-07-30T01:33:05.072Z,69
2022-07-30T01:33:51.379Z,68
2022-07-30T01:34:37.102Z,68
2022-07-30T01:35:23.015Z,68
2022-07-30T01:36:09.049Z,68
2022-07-30T01:36:55.150Z,69
2022-07-30T01:37:41.082Z,68
2022-07-30T01:38:27.032Z,69
2022-07-30T01:39:13.025Z,68
2022-07-30T01:39:59.035Z,69
2022-07-30T01:40:45.090Z,69
2022-07-30T01:41:31.047Z,69
2022-07-30T01:42:17.078Z,68
2022-07-30T01:43:03.054Z,68
2022-07-30T01:43:49.071Z,69
2022-07-30T01:44:35.050Z,68
2022-07-30T01:45:21.248Z,69
2022-07-30T01:46:07.145Z,68
2022-07-30T01:46:53.040Z,69
2022-07-30T01:47:39.179Z,68
2022-07-30T01:48:25.154Z,68
2022-07-30T01:49:11.307Z,68
2022-07-30T01:49:57.069Z,69
2022-07-30T01:50:43.130Z,69
2022-07-30T01:51:33.387Z,69
2022-07-30T01:52:15.058Z,68
2022-07-30T01:53:01.064Z,68
2022-07-30T01:53:47.090Z,68
2022-07-30T01:54:33.138Z,68
2022-07-30T01:55:19.160Z,68
2022-07-30T01:56:05.133Z,68
2022-07-30T01:56:51.323Z,68
2022-07-30T01:57:37.417Z,68
2022-07-30T01:58:23.107Z,68
2022-07-30T01:59:09.099Z,69
2022-07-30T01:59:55.153Z,68
2022-07-30T02:00:41.210Z,68
2022-07-30T02:01:27.129Z,68
2022-07-30T02:02:13.144Z,69
2022-07-30T02:02:59.087Z,68
2022-07-30T02:03:45.178Z,69
2022-07-30T02:04:31.126Z,68
2022-07-30T02:05:17.132Z,69
2022-07-30T02:06:03.311Z,68
2022-07-30T02:06:49.111Z,69
2022-07-30T02:07:35.095Z,68
2022-07-30T02:08:21.181Z,69
2022-07-30T02:09:10.722Z,69
2022-07-30T02:09:53.127Z,69
2022-07-30T02:10:39.246Z,69
2022-07-30T02:11:25.143Z,68
2022-07-30T02:12:11.407Z,69
2022-07-30T02:12:57.155Z,69
2022-07-30T02:13:43.135Z,69
2022-07-30T02:14:29.160Z,69
2022-07-30T02:15:15.241Z,69
2022-07-30T02:16:01.171Z,68
2022-07-30T02:16:47.248Z,69
2022-07-30T02:17:39.464Z,68
2022-07-30T02:18:19.169Z,69
2022-07-30T02:19:06.238Z,69
2022-07-30T02:19:51.429Z,68
2022-07-30T02:20:38.380Z,68
2022-07-30T02:21:23.136Z,68
2022-07-30T02:22:09.202Z,68
2022-07-30T02:22:55.219Z,69
2022-07-30T02:23:41.144Z,68
2022-07-30T02:24:27.137Z,68
2022-07-30T02:25:13.232Z,69
2022-07-30T02:25:59.176Z,68
2022-07-30T02:26:45.204Z,69
2022-07-30T02:27:31.197Z,68
2022-07-30T02:28:17.198Z,69
2022-07-30T02:29:03.201Z,69
2022-07-30T02:29:49.191Z,69
2022-07-30T02:30:35.273Z,69
2022-07-30T02:31:21.230Z,69
2022-07-30T02:32:07.176Z,69
2022-07-30T02:32:53.196Z,69
2022-07-30T02:33:42.094Z,68
2022-07-30T02:34:25.289Z,68
2022-07-30T02:35:11.341Z,69
2022-07-30T02:35:57.184Z,69
2022-07-30T02:36:43.170Z,69
2022-07-30T02:37:43.661Z,69
2022-07-30T02:38:15.203Z,68
2022-07-30T02:39:01.168Z,69
2022-07-30T02:39:47.260Z,69
2022-07-30T02:40:33.567Z,68
2022-07-30T02:41:19.224Z,69
2022-07-30T02:42:05.308Z,68
2022-07-30T02:42:51.521Z,69
2022-07-30T02:43:37.240Z,68
2022-07-30T02:44:23.187Z,69
2022-07-30T02:45:09.284Z,68
2022-07-30T02:45:55.348Z,69
2022-07-30T02:46:41.299Z,69
2022-07-30T02:47:27.245Z,69
2022-07-30T02:48:29.229Z,69
2022-07-30T02:48:59.256Z,69
2022-07-30T02:49:45.228Z,69
2022-07-30T02:50:31.214Z,68
2022-07-30T02:51:17.266Z,69
2022-07-30T02:52:03.303Z,69
2022-07-30T02:52:49.208Z,68
2022-07-30T02:53:35.185Z,69
2022-07-30T02:54:21.254Z,69
2022-07-30T02:55:07.219Z,69
2022-07-30T02:55:53.239Z,69
2022-07-30T02:56:39.323Z,68
2022-07-30T02:57:25.340Z,69
2022-07-30T02:58:11.342Z,69
2022-07-30T02:58:57.263Z,69
2022-07-30T02:59:43.283Z,68
2022-07-30T03:00:29.434Z,69
2022-07-30T03:01:15.442Z,68
2022-07-30T03:02:01.277Z,69
2022-07-30T03:02:47.311Z,69
2022-07-30T03:03:33.439Z,68
2022-07-30T03:04:19.330Z,69
2022-07-30T03:05:05.323Z,69
2022-07-30T03:05:51.524Z,69
2022-07-30T03:06:37.284Z,68
2022-07-30T03:07:23.282Z,69
2022-07-30T03:08:09.306Z,69
2022-07-30T03:08:55.334Z,69
2022-07-30T03:09:52.471Z,69
2022-07-30T03:10:27.233Z,69
2022-07-30T03:11:13.352Z,68
2022-07-30T03:11:59.300Z,69
2022-07-30T03:12:45.323Z,68
2022-07-30T03:13:31.270Z,69
2022-07-30T03:14:17.259Z,69
2022-07-30T03:15:03.537Z,69
2022-07-30T03:15:49.318Z,69
2022-07-30T03:16:35.362Z,69
2022-07-30T03:17:21.322Z,69
2022-07-30T03:18:07.253Z,69
2022-07-30T03:18:53.255Z,69
2022-07-30T03:19:39.380Z,69
2022-07-30T03:20:25.331Z,69
2022-07-30T03:21:11.400Z,69
2022-07-30T03:21:57.285Z,69
2022-07-30T03:22:43.314Z,70
2022-07-30T03:23:29.397Z,69
2022-07-30T03:24:15.304Z,69
2022-07-30T03:25:01.333Z,69
2022-07-30T03:25:47.271Z,69
2022-07-30T03:26:33.410Z,69
2022-07-30T03:27:19.299Z,69
2022-07-30T03:28:05.394Z,69
2022-07-30T03:28:51.390Z,70
2022-07-30T03:29:37.281Z,69
2022-07-30T03:30:23.343Z,69
2022-07-30T03:31:09.390Z,69
2022-07-30T03:31:55.472Z,70
2022-07-30T03:32:41.299Z,70
2022-07-30T03:33:38.420Z,70
2022-07-30T03:34:13.303Z,69
2022-07-30T03:35:01.971Z,70
2022-07-30T03:35:45.362Z,70
2022-07-30T03:36:31.327Z,70
2022-07-30T03:37:17.343Z,70
2022-07-30T03:38:03.405Z,70
2022-07-30T03:38:49.336Z,70
2022-07-30T03:39:35.338Z,70
2022-07-30T03:40:21.374Z,70
2022-07-30T03:41:07.312Z,70
2022-07-30T03:41:53.344Z,70
2022-07-30T03:42:39.425Z,70
2022-07-30T03:43:32.969Z,70
2022-07-30T03:44:11.525Z,70
2022-07-30T03:44:57.349Z,70
2022-07-30T03:45:43.420Z,70
2022-07-30T03:46:29.415Z,70
2022-07-30T03:47:15.367Z,70
2022-07-30T03:48:01.340Z,70
2022-07-30T03:48:47.386Z,70
2022-07-30T03:49:33.546Z,70
2022-07-30T03:50:19.345Z,70
2022-07-30T03:51:05.381Z,70
2022-07-30T03:51:51.542Z,70
2022-07-30T03:52:37.379Z,70
2022-07-30T03:53:23.363Z,70
2022-07-30T03:54:12.898Z,70
2022-07-30T03:54:55.442Z,70
2022-07-30T03:55:41.390Z,70
2022-07-30T03:56:27.403Z,70
2022-07-30T03:57:17.673Z,70
2022-07-30T03:57:59.494Z,70
2022-07-30T03:58:45.486Z,70
2022-07-30T03:59:31.429Z,70
2022-07-30T04:00:17.454Z,70
2022-07-30T04:01:03.583Z,70
2022-07-30T04:01:49.467Z,70
2022-07-30T04:02:35.477Z,70
2022-07-30T04:03:21.575Z,70
2022-07-30T04:04:07.505Z,70
2022-07-30T04:04:53.459Z,70
2022-07-30T04:05:41.665Z,70
2022-07-30T04:06:25.538Z,70
2022-07-30T04:07:11.581Z,70
2022-07-30T04:07:57.418Z,70
2022-07-30T04:08:43.493Z,70
2022-07-30T04:09:29.517Z,70
2022-07-30T04:10:15.488Z,70
2022-07-30T04:11:01.530Z,70
2022-07-30T04:11:47.469Z,70
2022-07-30T04:12:33.658Z,70
2022-07-30T04:13:19.497Z,70
2022-07-30T04:14:05.602Z,70
2022-07-30T04:14:51.547Z,70
2022-07-30T04:16:05.123Z,70
2022-07-30T04:17:09.605Z,70
2022-07-30T04:17:55.535Z,70
2022-07-30T04:18:41.525Z,70
2022-07-30T04:19:27.472Z,70
2022-07-30T04:20:17.939Z,70
2022-07-30T04:20:59.543Z,70
2022-07-30T04:21:45.460Z,70
2022-07-30T04:22:31.509Z,70
2022-07-30T04:23:17.501Z,70
2022-07-30T04:24:05.074Z,70
2022-07-30T04:24:49.507Z,70
2022-07-30T04:25:35.480Z,70
2022-07-30T04:26:21.623Z,70
2022-07-30T04:27:07.573Z,70
2022-07-30T04:28:03.450Z,70
2022-07-30T04:28:39.565Z,70
2022-07-30T04:29:25.691Z,70
2022-07-30T04:30:11.730Z,70
2022-07-30T04:30:57.602Z,70
2022-07-30T04:31:43.546Z,70
2022-07-30T04:32:29.511Z,70
2022-07-30T04:33:15.508Z,70
2022-07-30T04:34:03.086Z,70
2022-07-30T04:34:47.544Z,70
2022-07-30T04:35:50.905Z,70
2022-07-30T04:36:19.486Z,70
2022-07-30T04:37:05.634Z,70
2022-07-30T04:37:51.540Z,70
2022-07-30T04:38:37.644Z,70
2022-07-30T04:39:23.605Z,70
2022-07-30T04:40:09.625Z,70
2022-07-30T04:40:55.605Z,70
2022-07-30T04:41:48.570Z,70
2022-07-30T04:42:27.559Z,70
2022-07-30T04:43:13.605Z,70
2022-07-30T04:43:59.527Z,70
2022-07-30T04:44:45.581Z,70
2022-07-30T04:45:31.664Z,70
2022-07-30T04:46:17.635Z,70
2022-07-30T04:47:03.924Z,70
2022-07-30T04:47:49.537Z,70
2022-07-30T04:48:35.574Z,70
2022-07-30T04:49:21.702Z,70
2022-07-30T04:50:07.611Z,70
2022-07-30T04:50:53.555Z,70
2022-07-30T04:51:39.681Z,70
2022-07-30T04:52:25.656Z,70
2022-07-30T04:53:11.726Z,70
2022-07-30T04:53:57.600Z,70
2022-07-30T04:54:43.559Z,70
2022-07-30T04:55:29.559Z,70
2022-07-30T04:56:15.606Z,70
2022-07-30T04:57:02.123Z,70
2022-07-30T04:57:47.570Z,70
2022-07-30T04:58:33.998Z,70
2022-07-30T04:59:19.660Z,70
2022-07-30T05:00:05.784Z,70
2022-07-30T05:00:51.654Z,70
2022-07-30T05:01:40.635Z,70
2022-07-30T05:02:23.638Z,70
2022-07-30T05:03:09.649Z,70
2022-07-30T05:03:55.650Z,70
2022-07-30T05:04:41.651Z,70
2022-07-30T05:05:27.708Z,70
2022-07-30T05:06:13.598Z,70
2022-07-30T05:06:59.966Z,70
2022-07-30T05:07:45.651Z,69
2022-07-30T05:08:31.594Z,69
2022-07-30T05:09:17.654Z,69
2022-07-30T05:10:03.858Z,69
2022-07-30T05:10:49.602Z,69
2022-07-30T05:11:35.737Z,69
2022-07-30T05:12:21.718Z,69
2022-07-30T05:13:07.959Z,69
2022-07-30T05:13:53.595Z,69
2022-07-30T05:14:39.690Z,69
2022-07-30T05:15:35.869Z,69
2022-07-30T05:16:11.803Z,69
2022-07-30T05:16:57.788Z,69
2022-07-30T05:17:43.636Z,69
2022-07-30T05:18:29.636Z,69
2022-07-30T05:19:15.615Z,69
2022-07-30T05:20:01.730Z,69
2022-07-30T05:20:47.667Z,69
2022-07-30T05:21:33.859Z,69
2022-07-30T05:22:19.698Z,69
2022-07-30T05:23:05.790Z,69
2022-07-30T05:23:51.656Z,69
2022-07-30T05:24:37.657Z,69
2022-07-30T05:25:23.644Z,69
2022-07-30T05:26:09.664Z,69
2022-07-30T05:26:55.664Z,69
2022-07-30T05:27:41.696Z,69
2022-07-30T05:28:27.717Z,69
2022-07-30T05:29:14.957Z,69
2022-07-30T05:29:59.705Z,69
2022-07-30T05:30:45.901Z,69
2022-07-30T05:31:32.922Z,69
2022-07-30T05:32:17.681Z,69
2022-07-30T05:33:08.707Z,69
2022-07-30T05:33:49.682Z,69
2022-07-30T05:34:35.667Z,69
2022-07-30T05:35:21.670Z,68
2022-07-30T05:36:07.783Z,68
2022-07-30T05:36:53.761Z,68
2022-07-30T05:37:39.752Z,69
2022-07-30T05:38:25.755Z,68
2022-07-30T05:39:11.841Z,68
2022-07-30T05:40:02.810Z,68
2022-07-30T05:40:43.699Z,68
2022-07-30T05:41:32.373Z,68
2022-07-30T05:42:15.804Z,68
2022-07-30T05:43:01.724Z,68
2022-07-30T05:43:47.717Z,68
2022-07-30T05:44:34.011Z,68
2022-07-30T05:45:19.774Z,68
2022-07-30T05:46:05.953Z,68
2022-07-30T05:46:51.791Z,68
2022-07-30T05:47:37.749Z,68
2022-07-30T05:48:23.788Z,68
2022-07-30T05:49:09.806Z,68
2022-07-30T05:49:55.794Z,68
2022-07-30T05:50:41.796Z,68
2022-07-30T05:51:27.730Z,68
2022-07-30T05:52:13.736Z,68
2022-07-30T05:52:59.717Z,68
2022-07-30T05:53:45.828Z,68
2022-07-30T05:54:31.697Z,68
2022-07-30T05:55:17.891Z,68
2022-07-30T05:56:04.066Z,68
2022-07-30T05:56:49.716Z,68
2022-07-30T05:57:35.725Z,68
2022-07-30T05:58:21.790Z,68
2022-07-30T05:59:07.814Z,68
2022-07-30T05:59:53.789Z,68
2022-07-30T06:00:39.979Z,68
2022-07-30T06:01:25.905Z,68
2022-07-30T06:02:11.832Z,68
2022-07-30T06:02:57.783Z,68
2022-07-30T06:03:43.776Z,68
2022-07-30T06:04:29.805Z,68
2022-07-30T06:05:15.791Z,68
2022-07-30T06:06:01.902Z,68
2022-07-30T06:06:47.773Z,68
2022-07-30T06:07:34.127Z,68
2022-07-30T06:08:19.817Z,68
2022-07-30T06:09:05.859Z,68
2022-07-30T06:09:51.773Z,68
2022-07-30T06:10:37.879Z,68
2022-07-30T06:11:23.942Z,68
2022-07-30T06:12:09.937Z,68
2022-07-30T06:12:55.114Z,68
2022-07-30T06:13:41.930Z,68
2022-07-30T06:14:27.893Z,68
2022-07-30T06:15:13.912Z,67
2022-07-30T06:15:59.889Z,67
2022-07-30T06:16:45.898Z,67
2022-07-30T06:17:31.986Z,67
2022-07-30T06:18:17.912Z,68
2022-07-30T06:19:04.099Z,67
2022-07-30T06:19:49.914Z,68
2022-07-30T06:20:35.919Z,68
2022-07-30T06:21:21.959Z,68
2022-07-30T06:22:07.878Z,68
2022-07-30T06:22:53.942Z,67
2022-07-30T06:23:39.998Z,67
2022-07-30T06:24:26.022Z,68
2022-07-30T06:25:12.032Z,68
2022-07-30T06:25:57.931Z,68
2022-07-30T06:26:43.916Z,68
2022-07-30T06:27:31.674Z,68
2022-07-30T06:28:36.497Z,68
2022-07-30T06:29:01.976Z,68
2022-07-30T06:29:47.912Z,68
2022-07-30T06:30:34.410Z,67
2022-07-30T06:31:20.007Z,67
2022-07-30T06:32:06.036Z,67
2022-07-30T06:32:51.974Z,67
2022-07-30T06:33:37.960Z,68
2022-07-30T06:34:24.004Z,68
2022-07-30T06:35:09.904Z,68
2022-07-30T06:35:56.025Z,67
2022-07-30T06:36:41.917Z,68
2022-07-30T06:37:58.822Z,68
2022-07-30T06:38:13.986Z,67
2022-07-30T06:39:00.001Z,67
2022-07-30T06:39:58.020Z,67
2022-07-30T06:40:31.969Z,67
2022-07-30T06:41:17.958Z,68
2022-07-30T06:42:04.263Z,67
2022-07-30T06:42:50.027Z,67
2022-07-30T06:43:35.990Z,67
2022-07-30T06:44:22.043Z,67
2022-07-30T06:45:08.006Z,67
2022-07-30T06:45:54.031Z,67
2022-07-30T06:46:40.160Z,67
2022-07-30T06:47:26.041Z,67
2022-07-30T06:48:12.141Z,67
2022-07-30T06:48:58.042Z,67
2022-07-30T06:49:43.989Z,67
2022-07-30T06:50:30.059Z,67
2022-07-30T06:51:15.981Z,67
2022-07-30T06:52:02.010Z,67
2022-07-30T06:52:47.961Z,67
2022-07-30T06:53:42.251Z,67
2022-07-30T06:54:20.062Z,67
2022-07-30T06:55:06.160Z,67
2022-07-30T06:55:54.414Z,67
2022-07-30T06:56:38.051Z,67
2022-07-30T06:57:24.073Z,67
2022-07-30T06:58:10.038Z,67
2022-07-30T06:58:56.084Z,66
2022-07-30T06:59:56.597Z,66
2022-07-30T07:00:28.022Z,66
2022-07-30T07:01:14.040Z,66
2022-07-30T07:02:00.015Z,66
2022-07-30T07:02:46.060Z,66
2022-07-30T07:03:39.612Z,66
2022-07-30T07:04:18.147Z,66
2022-07-30T07:05:04.180Z,66
2022-07-30T07:05:50.033Z,66
2022-07-30T07:06:36.032Z,62
2022-07-30T07:07:40.284Z,62
2022-07-30T07:08:08.013Z,62
2022-07-30T07:08:54.028Z,63
2022-07-30T07:09:40.191Z,63
2022-07-30T07:10:26.253Z,63
2022-07-30T07:11:12.118Z,63
2022-07-30T07:11:58.098Z,63
2022-07-30T07:12:44.077Z,63
2022-07-30T07:13:30.090Z,63
2022-07-30T07:14:16.088Z,63
2022-07-30T07:15:02.264Z,63
2022-07-30T07:15:48.046Z,62
2022-07-30T07:16:34.304Z,62
2022-07-30T07:17:20.138Z,63
2022-07-30T07:18:06.162Z,63
2022-07-30T07:18:52.081Z,63
2022-07-30T07:20:01.368Z,63
2022-07-30T07:20:24.119Z,63
2022-07-30T07:21:10.148Z,63
2022-07-30T07:21:56.126Z,59
2022-07-30T07:22:42.083Z,58
2022-07-30T07:23:41.947Z,59
2022-07-30T07:24:14.097Z,58
2022-07-30T07:25:00.113Z,59
2022-07-30T07:25:46.175Z,59
2022-07-30T07:26:32.099Z,59
2022-07-30T07:27:18.184Z,58
2022-07-30T07:28:12.697Z,55
2022-07-30T07:28:50.198Z,55
2022-07-30T07:29:36.050Z,55
2022-07-30T07:30:22.190Z,55
2022-07-30T07:31:08.176Z,55
2022-07-30T07:32:07.000Z,55
2022-07-30T07:32:40.233Z,58
2022-07-30T07:33:26.182Z,58
2022-07-30T07:34:16.802Z,58
2022-07-30T07:34:58.154Z,55
2022-07-30T07:35:49.130Z,55
2022-07-30T07:36:30.093Z,58
2022-07-30T07:37:16.193Z,59
2022-07-30T07:38:02.146Z,59
2022-07-30T07:38:48.166Z,55
2022-07-30T07:39:34.470Z,55
2022-07-30T07:40:20.115Z,55
2022-07-30T07:41:06.138Z,56
2022-07-30T07:41:52.151Z,59
2022-07-30T07:42:38.166Z,59
2022-07-30T07:43:24.153Z,59
2022-07-30T07:44:10.351Z,59
2022-07-30T07:44:56.203Z,59
2022-07-30T07:45:42.264Z,59
2022-07-30T07:46:33.925Z,59
2022-07-30T07:47:14.210Z,59
2022-07-30T07:48:00.170Z,58
2022-07-30T07:48:46.241Z,58
2022-07-30T07:49:32.187Z,58
2022-07-30T07:50:18.235Z,58
2022-07-30T07:51:04.319Z,58
2022-07-30T07:51:50.185Z,58
2022-07-30T07:52:36.205Z,57
2022-07-30T07:53:22.219Z,55
2022-07-30T07:54:21.088Z,56
2022-07-30T07:54:54.249Z,58
2022-07-30T07:55:40.354Z,58
2022-07-30T07:56:26.258Z,58
2022-07-30T07:57:12.311Z,58
2022-07-30T07:57:58.192Z,58
2022-07-30T07:58:44.210Z,58
2022-07-30T07:59:36.396Z,59
2022-07-30T08:00:16.305Z,58
2022-07-30T08:01:02.232Z,58
2022-07-30T08:01:49.973Z,58
2022-07-30T08:02:34.625Z,58
2022-07-30T08:03:20.278Z,58
2022-07-30T08:04:10.459Z,59
2022-07-30T08:04:52.183Z,59
2022-07-30T08:05:56.875Z,59
2022-07-30T08:06:24.274Z,59
2022-07-30T08:07:10.223Z,59
2022-07-30T08:07:56.249Z,59
2022-07-30T08:08:42.211Z,59
2022-07-30T08:09:40.877Z,59
2022-07-30T08:10:14.193Z,59
2022-07-30T08:11:00.264Z,59
2022-07-30T08:11:46.195Z,59
2022-07-30T08:12:32.276Z,59
2022-07-30T08:13:49.105Z,61
2022-07-30T08:14:04.360Z,61
2022-07-30T08:14:50.268Z,60
2022-07-30T08:15:36.367Z,60
2022-07-30T08:16:22.322Z,60
2022-07-30T08:17:08.982Z,60
2022-07-30T08:17:54.261Z,60
2022-07-30T08:18:40.388Z,60
2022-07-30T08:19:26.244Z,60
2022-07-30T08:20:12.464Z,60
2022-07-30T08:20:58.249Z,60
2022-07-30T08:21:44.338Z,60
2022-07-30T08:22:30.279Z,60
2022-07-30T08:23:16.305Z,60
2022-07-30T08:24:02.286Z,60
2022-07-30T08:24:48.366Z,60
2022-07-30T08:25:34.516Z,60
2022-07-30T08:26:20.358Z,60
2022-07-30T08:27:06.245Z,60
2022-07-30T08:27:51.563Z,60
2022-07-30T08:28:38.314Z,60
2022-07-30T08:29:24.253Z,60
2022-07-30T08:30:10.372Z,60
2022-07-30T08:30:59.161Z,60
2022-07-30T08:31:42.310Z,60
2022-07-30T08:32:28.307Z,60
2022-07-30T08:33:14.507Z,60
2022-07-30T08:34:00.283Z,59
2022-07-30T08:34:46.318Z,59
2022-07-30T08:35:32.303Z,58
2022-07-30T08:36:19.718Z,57
2022-07-30T08:37:04.552Z,90
2022-07-30T08:37:50.353Z,76
2022-07-30T08:38:36.351Z,64
2022-07-30T08:39:22.280Z,62
2022-07-30T08:40:08.317Z,63
2022-07-30T08:40:54.317Z,35
2022-07-30T08:41:40.441Z,36
2022-07-30T08:42:26.546Z,36
2022-07-30T08:43:12.448Z,36
2022-07-30T08:43:58.304Z,36
2022-07-30T08:44:44.329Z,36
2022-07-30T08:45:34.547Z,36
2022-07-30T08:46:16.323Z,40
2022-07-30T08:47:02.587Z,40
2022-07-30T08:47:48.302Z,40
2022-07-30T08:48:34.649Z,44
2022-07-30T08:49:20.379Z,57
2022-07-30T08:50:06.403Z,45
2022-07-30T08:50:52.325Z,53
2022-07-30T08:51:38.498Z,53
2022-07-30T08:52:24.339Z,53
2022-07-30T08:53:10.265Z,54
2022-07-30T08:53:56.294Z,55
2022-07-30T08:54:42.221Z,55
2022-07-30T08:55:28.383Z,56
2022-07-30T08:56:14.379Z,59
2022-07-30T08:57:00.362Z,59
2022-07-30T08:57:46.438Z,59
2022-07-30T08:58:32.327Z,262
2022-07-30T08:59:18.441Z,308
2022-07-30T09:00:04.623Z,272
2022-07-30T09:00:50.459Z,258
2022-07-30T09:01:36.418Z,267
2022-07-30T09:02:27.723Z,268
2022-07-30T09:03:08.534Z,269
2022-07-30T09:03:54.439Z,30
2022-07-30T09:04:40.659Z,46
2022-07-30T09:05:26.417Z,52
2022-07-30T09:06:12.441Z,49
2022-07-30T09:06:58.785Z,48
2022-07-30T09:07:44.338Z,48
2022-07-30T09:08:30.419Z,48
2022-07-30T09:09:16.428Z,48
2022-07-30T09:10:02.409Z,48
2022-07-30T09:10:52.674Z,48
2022-07-30T09:11:34.716Z,48
2022-07-30T09:12:20.476Z,48
2022-07-30T09:13:06.290Z,49
2022-07-30T09:13:52.285Z,49
2022-07-30T09:14:38.437Z,49
2022-07-30T09:15:24.469Z,51
2022-07-30T09:16:10.484Z,51
2022-07-30T09:16:56.463Z,52
2022-07-30T09:17:42.401Z,48
2022-07-30T09:18:28.407Z,46
2022-07-30T09:19:14.426Z,55
2022-07-30T09:20:00.436Z,46
2022-07-30T09:20:46.451Z,55
2022-07-30T09:21:32.420Z,42
2022-07-30T09:22:18.494Z,41
2022-07-30T09:23:04.558Z,40
2022-07-30T09:23:51.237Z,41
2022-07-30T09:24:35.668Z,41
2022-07-30T09:25:22.451Z,40
2022-07-30T09:26:08.403Z,40
2022-07-30T09:26:54.388Z,40
2022-07-30T09:27:40.565Z,40
2022-07-30T09:28:26.438Z,40
2022-07-30T09:29:12.666Z,40
2022-07-30T09:29:58.387Z,40
2022-07-30T09:30:44.616Z,41
2022-07-30T09:32:16.489Z,59
2022-07-30T09:33:02.529Z,49
2022-07-30T09:33:48.539Z,48
2022-07-30T09:34:34.741Z,49
2022-07-30T09:35:20.893Z,34
2022-07-30T09:36:06.575Z,4
2022-07-30T09:36:52.492Z,352
2022-07-30T09:37:38.545Z,44
2022-07-30T09:38:24.441Z,58
2022-07-30T09:39:10.508Z,58
2022-07-30T09:39:59.239Z,58
2022-07-30T09:40:42.985Z,34
2022-07-30T09:41:38.800Z,34
2022-07-30T09:42:14.657Z,34
2022-07-30T09:43:00.487Z,34
2022-07-30T09:43:46.502Z,34
2022-07-30T09:44:32.509Z,34
2022-07-30T09:45:18.619Z,34
2022-07-30T09:46:04.663Z,223
2022-07-30T09:46:50.520Z,294
2022-07-30T09:47:36.563Z,2
2022-07-30T09:48:22.485Z,2
2022-07-30T09:49:08.534Z,2
2022-07-30T09:49:54.583Z,240
2022-07-30T09:50:40.672Z,257
2022-07-30T09:51:54.593Z,257
2022-07-30T09:52:12.622Z,319
2022-07-30T09:52:58.511Z,343
2022-07-30T09:53:44.619Z,19
2022-07-30T09:54:30.553Z,19
2022-07-30T09:55:16.961Z,24
2022-07-30T09:56:02.530Z,30
2022-07-30T09:56:53.870Z,60
2022-07-30T09:57:34.949Z,56
2022-07-30T09:58:27.251Z,56
2022-07-30T09:59:06.662Z,56
2022-07-30T09:59:52.551Z,56
2022-07-30T10:00:38.654Z,55
2022-07-30T10:01:24.494Z,55
2022-07-30T10:02:10.661Z,53
2022-07-30T10:03:12.554Z,52
2022-07-30T10:03:42.598Z,53
2022-07-30T10:04:28.513Z,149
2022-07-30T10:05:15.059Z,118
2022-07-30T10:06:00.660Z,133
2022-07-30T10:06:46.653Z,31
2022-07-30T10:07:32.578Z,32
2022-07-30T10:08:18.944Z,32
2022-07-30T10:09:13.954Z,32
2022-07-30T10:09:50.578Z,356
2022-07-30T10:10:36.572Z,357
2022-07-30T10:11:23.511Z,356
2022-07-30T10:12:10.537Z,356
2022-07-30T10:12:54.558Z,35
2022-07-30T10:13:45.185Z,85
2022-07-30T10:14:30.827Z,76
2022-07-30T10:15:13.652Z,75
2022-07-30T10:15:58.559Z,352
2022-07-30T10:16:44.588Z,353
2022-07-30T10:17:30.766Z,352
2022-07-30T10:18:17.574Z,352
2022-07-30T10:19:02.658Z,353
2022-07-30T10:19:49.032Z,346
2022-07-30T10:20:35.093Z,2
2022-07-30T10:21:20.649Z,3
2022-07-30T10:22:06.644Z,42
2022-07-30T10:22:52.610Z,42
2022-07-30T10:23:44.250Z,42
2022-07-30T10:25:10.676Z,51
2022-07-30T10:25:56.666Z,7
2022-07-30T10:26:42.574Z,79
2022-07-30T10:27:28.646Z,350
2022-07-30T10:28:14.752Z,350
2022-07-30T10:29:00.996Z,351
2022-07-30T10:29:46.775Z,358
2022-07-30T10:30:32.677Z,80
2022-07-30T10:31:47.952Z,93
2022-07-30T10:32:04.687Z,75
2022-07-30T10:32:52.529Z,74
2022-07-30T10:33:40.439Z,74
2022-07-30T10:34:23.663Z,38
2022-07-30T10:35:08.647Z,19
2022-07-30T10:35:54.586Z,337
2022-07-30T10:36:40.828Z,73
2022-07-30T10:37:26.810Z,69
2022-07-30T10:38:13.431Z,309
2022-07-30T10:38:58.697Z,319
2022-07-30T10:39:44.645Z,342
2022-07-30T10:40:31.012Z,342
2022-07-30T10:41:16.650Z,344
2022-07-30T10:42:02.535Z,344
2022-07-30T10:42:48.546Z,344
2022-07-30T10:43:34.686Z,344
2022-07-30T10:44:20.748Z,344
2022-07-30T10:45:06.745Z,344
2022-07-30T10:45:52.678Z,344
2022-07-30T10:46:38.778Z,252
2022-07-30T10:47:29.117Z,215
2022-07-30T10:48:10.682Z,203
2022-07-30T10:48:56.735Z,283
2022-07-30T10:49:43.337Z,237
2022-07-30T10:50:28.711Z,198
2022-07-30T10:51:18.625Z,242
2022-07-30T10:52:00.712Z,271
2022-07-30T10:52:46.703Z,295
2022-07-30T10:53:32.754Z,334
2022-07-30T10:54:18.721Z,333
2022-07-30T10:55:05.115Z,343
2022-07-30T10:55:50.723Z,343
2022-07-30T10:56:36.718Z,25